Time;durP1;ratioP1;P1;durP2;ratioP2;P2;SDS_P1;SDS_P2;PMS_P1;PMS_P2;Temp;Humidity;BMP_temperature;BMP_pressure;BME280_temperature;BME280_humidity;BME280_pressure;Samples;Min_cycle;Max_cycle;Signal;HPM_P1;HPM_P2
2022/02/15 00:03:08;;;;;;;41.65;19.90;;;;;;;4.70;71.65;99739.97;713594;1174;114711;-76
2022/02/15 00:18:11;;;;;;;46.55;20.40;;;;;;;4.69;70.78;99732.28;713291;1174;115316;-74
2022/02/15 00:33:13;;;;;;;41.70;19.18;;;;;;;4.69;71.25;99719.30;713325;1177;113871;-76
2022/02/15 00:48:15;;;;;;;39.90;18.25;;;;;;;4.64;71.80;99709.22;713744;1174;114792;-78
2022/02/15 01:03:17;;;;;;;39.48;19.00;;;;;;;4.52;71.42;99702.32;713645;1174;114580;-80
2022/02/15 01:35:36;;;;;;;41.87;20.47;;;;;;;4.35;72.72;99665.39;713077;1174;114862;-74
2022/02/15 01:50:38;;;;;;;41.67;19.80;;;;;;;4.19;73.73;99675.23;713437;1174;115252;-75
2022/02/15 02:05:50;;;;;;;42.60;20.33;;;;;;;4.05;73.49;99664.06;713739;1174;114559;-75
2022/02/15 02:20:52;;;;;;;41.10;20.05;;;;;;;3.89;74.44;99658.28;713346;1174;114805;-75
2022/02/15 02:36:00;;;;;;;40.75;20.48;;;;;;;3.79;75.20;99666.70;713089;1174;114370;-75
2022/02/15 02:51:02;;;;;;;41.70;21.00;;;;;;;3.72;76.97;99673.27;713416;1174;114462;-75
2022/02/15 03:06:06;;;;;;;45.28;20.88;;;;;;;3.69;75.59;99690.80;713701;1177;115339;-75
2022/02/15 03:21:08;;;;;;;44.93;20.63;;;;;;;3.62;77.09;99682.61;713468;1174;115161;-75
2022/02/15 03:36:10;;;;;;;48.85;23.00;;;;;;;3.64;76.69;99685.92;713517;1176;114824;-75
2022/02/15 03:51:13;;;;;;;133.35;50.85;;;;;;;3.80;77.28;99683.09;713304;1177;115405;-76
2022/02/15 04:06:15;;;;;;;47.83;22.68;;;;;;;3.79;77.78;99676.27;713337;1174;115307;-76
2022/02/15 04:21:23;;;;;;;47.30;23.70;;;;;;;3.80;78.16;99680.49;713462;1175;114675;-77
2022/02/15 04:36:25;;;;;;;46.98;23.85;;;;;;;3.80;79.84;99667.52;713214;1175;115211;-76
2022/02/15 04:51:28;;;;;;;61.95;28.33;;;;;;;3.71;78.94;99676.80;713546;1174;115541;-74
2022/02/15 05:06:30;;;;;;;70.68;32.10;;;;;;;3.60;79.72;99659.38;715332;1174;114961;-82
2022/02/15 05:21:32;;;;;;;57.40;26.10;;;;;;;3.49;80.01;99680.02;718831;1177;115628;-77
2022/02/15 05:36:35;;;;;;;51.65;24.45;;;;;;;3.31;79.80;99680.34;713454;1177;114829;-77
2022/02/15 05:51:38;;;;;;;47.35;24.93;;;;;;;3.25;80.71;99674.75;713586;1175;115176;-76
2022/02/15 06:06:41;;;;;;;61.20;26.83;;;;;;;3.25;81.96;99667.78;714538;1174;114026;-86
2022/02/15 06:21:43;;;;;;;56.55;26.60;;;;;;;3.39;81.65;99677.23;714734;1174;114725;-85
2022/02/15 06:36:46;;;;;;;58.65;26.90;;;;;;;3.66;81.93;99694.44;715195;1174;113917;-87
2022/02/15 06:51:48;;;;;;;99.35;58.35;;;;;;;3.97;82.96;99713.06;714013;1174;115537;-76
2022/02/15 07:06:50;;;;;;;65.83;32.48;;;;;;;4.12;82.40;99732.77;713583;1174;115333;-75
2022/02/15 07:21:57;;;;;;;65.58;29.25;;;;;;;4.24;83.09;99732.86;713999;1177;114600;-77
2022/02/15 07:36:59;;;;;;;51.18;24.98;;;;;;;4.31;82.75;99765.23;713853;1175;114891;-76
2022/02/15 07:52:03;;;;;;;66.40;33.23;;;;;;;4.44;81.41;99757.41;713637;1174;115673;-80
2022/02/15 08:07:05;;;;;;;72.48;33.85;;;;;;;4.59;81.82;99755.48;716013;1174;114774;-77
2022/02/15 08:22:08;;;;;;;56.83;28.50;;;;;;;4.77;82.41;99755.94;717914;1176;114026;-80
2022/02/15 08:37:10;;;;;;;78.40;38.57;;;;;;;4.92;81.76;99751.39;719131;1174;114736;-79
2022/02/15 08:52:13;;;;;;;56.03;27.20;;;;;;;5.12;82.18;99786.33;715297;1174;114635;-79
2022/02/15 09:07:15;;;;;;;62.43;29.85;;;;;;;5.36;81.83;99794.11;714745;1174;114109;-79
2022/02/15 09:22:19;;;;;;;54.65;28.68;;;;;;;5.37;81.64;99789.73;715441;1174;114153;-81
2022/02/15 09:37:21;;;;;;;56.90;27.78;;;;;;;5.72;80.86;99774.07;714828;1174;114170;-79
2022/02/15 09:52:25;;;;;;;54.83;27.57;;;;;;;5.87;80.73;99798.09;714042;1177;114748;-79
2022/02/15 10:07:28;;;;;;;58.70;30.40;;;;;;;5.95;79.63;99802.72;715888;1174;113899;-85
2022/02/15 10:22:38;;;;;;;93.80;39.23;;;;;;;5.97;80.69;99803.45;717271;1174;113946;-83
2022/02/15 10:37:40;;;;;;;118.78;46.35;;;;;;;5.98;82.39;99797.33;717549;1174;113912;-84
2022/02/15 10:52:43;;;;;;;114.50;47.48;;;;;;;6.24;82.49;99802.30;719891;1174;115720;-84
2022/02/15 11:07:46;;;;;;;62.47;32.50;;;;;;;6.39;82.15;99800.26;718945;1174;114017;-84
2022/02/15 11:22:56;;;;;;;71.23;34.17;;;;;;;6.81;82.80;99816.09;717810;1174;115445;-84
2022/02/15 11:38:13;;;;;;;60.35;31.20;;;;;;;7.18;81.59;99818.34;717790;1174;113976;-75
2022/02/15 11:53:20;;;;;;;61.10;29.75;;;;;;;7.56;81.01;99801.32;714850;1174;114785;-77
2022/02/15 12:08:23;;;;;;;58.20;27.60;;;;;;;8.13;80.27;99819.22;717113;1174;115428;-77
2022/02/15 12:23:26;;;;;;;57.23;31.20;;;;;;;8.24;81.22;99813.07;717093;1174;115179;-77
2022/02/15 12:38:36;;;;;;;55.05;28.05;;;;;;;9.18;79.80;99810.11;717118;1176;115343;-75
2022/02/15 12:53:50;;;;;;;52.50;27.90;;;;;;;10.92;78.64;99813.28;716082;1174;115190;-73
2022/02/15 13:08:55;;;;;;;62.60;29.58;;;;;;;11.58;75.75;99819.09;715331;1174;115669;-77
2022/02/15 13:24:03;;;;;;;49.73;25.48;;;;;;;11.82;73.29;99842.08;715618;1175;114896;-75
2022/02/15 13:39:06;;;;;;;41.45;23.28;;;;;;;16.92;67.86;99836.03;715041;1174;115256;-76
2022/02/15 13:54:10;;;;;;;37.53;22.20;;;;;;;18.89;61.13;99849.42;715356;1174;114649;-76
2022/02/15 14:09:13;;;;;;;37.17;22.83;;;;;;;19.19;57.06;99854.41;718327;1174;114207;-76
2022/02/15 14:24:16;;;;;;;38.93;22.93;;;;;;;18.72;55.87;99862.22;714777;1174;115077;-77
2022/02/15 14:39:19;;;;;;;40.20;21.20;;;;;;;15.67;56.26;99866.68;722292;1174;114303;-76
2022/02/15 14:54:23;;;;;;;52.85;31.40;;;;;;;15.72;57.44;99880.19;716134;1174;114765;-78
2022/02/15 15:09:26;;;;;;;55.18;36.95;;;;;;;13.04;61.23;99877.02;715572;1174;114404;-81
2022/02/15 15:24:30;;;;;;;47.18;28.08;;;;;;;13.10;64.00;99910.59;714658;1174;114804;-79
2022/02/15 15:39:33;;;;;;;95.20;41.90;;;;;;;11.29;64.27;99897.14;717218;1174;114945;-81
2022/02/15 15:54:36;;;;;;;113.60;46.00;;;;;;;9.80;68.00;99901.45;717744;1174;116859;-79
2022/02/15 16:09:39;;;;;;;53.47;27.13;;;;;;;9.06;70.79;99921.11;715321;1174;115665;-78
2022/02/15 16:24:42;;;;;;;47.78;25.90;;;;;;;8.64;72.52;99929.92;715611;1177;114822;-77
2022/02/15 16:39:46;;;;;;;160.95;81.40;;;;;;;8.37;74.10;99919.98;715491;1177;114022;-76
2022/02/15 16:54:56;;;;;;;63.20;32.40;;;;;;;8.23;75.79;99929.81;716673;1177;114025;-79
2022/02/15 17:09:59;;;;;;;65.33;32.47;;;;;;;8.31;76.44;99937.02;716167;1174;113908;-75
2022/02/15 17:25:04;;;;;;;70.98;37.00;;;;;;;8.25;77.38;99943.59;715412;1174;113983;-78
2022/02/15 17:40:08;;;;;;;68.40;35.45;;;;;;;8.08;78.97;99955.45;715531;1177;113986;-76
2022/02/15 17:55:12;;;;;;;63.40;31.30;;;;;;;8.00;80.18;99960.48;716131;1174;115217;-77
2022/02/15 18:10:18;;;;;;;61.05;31.55;;;;;;;8.00;80.45;99963.92;716216;1174;115153;-77
2022/02/15 18:25:21;;;;;;;66.90;33.70;;;;;;;7.99;81.06;99957.03;715135;1174;113995;-76
2022/02/15 18:40:24;;;;;;;71.53;33.80;;;;;;;7.91;82.81;99972.52;714772;1174;114879;-76
2022/02/15 18:55:28;;;;;;;132.40;85.87;;;;;;;8.00;82.79;99970.94;715777;1174;114013;-77
2022/02/15 19:10:32;;;;;;;103.07;41.73;;;;;;;8.08;83.98;99976.36;715039;1174;114400;-76
2022/02/15 19:25:38;;;;;;;59.83;31.75;;;;;;;8.09;84.39;99958.88;715747;1167;114397;-79
2022/02/15 19:40:42;;;;;;;89.05;41.73;;;;;;;7.81;84.38;99976.82;715571;1175;116234;-76
2022/02/15 19:55:47;;;;;;;66.77;33.57;;;;;;;7.58;85.03;99971.69;715605;1174;114818;-75
2022/02/15 20:10:50;;;;;;;72.60;30.10;;;;;;;7.60;85.21;99974.16;717380;1169;114158;-83
2022/02/15 20:25:53;;;;;;;54.73;27.53;;;;;;;7.62;86.66;99974.89;717519;1174;114094;-80
2022/02/15 20:40:58;;;;;;;108.10;36.70;;;;;;;7.52;86.45;99981.80;724711;1176;114849;-75
2022/02/15 20:56:04;;;;;;;80.92;33.23;;;;;;;7.44;87.21;99957.15;715345;1174;114081;-76
2022/02/15 21:11:10;;;;;;;52.07;26.23;;;;;;;7.28;87.63;99946.27;715106;1175;114751;-74
2022/02/15 21:26:14;;;;;;;52.90;25.67;;;;;;;7.13;88.18;99935.27;714139;1176;115599;-76
2022/02/15 21:41:20;;;;;;;52.85;26.58;;;;;;;7.00;88.59;99930.19;714407;1174;115147;-74
2022/02/15 21:56:23;;;;;;;58.63;29.65;;;;;;;6.86;90.51;99920.83;715531;1175;115275;-74
2022/02/15 22:11:27;;;;;;;57.78;28.38;;;;;;;6.75;91.04;99913.03;714677;1174;113982;-74
2022/02/15 22:26:29;;;;;;;55.15;29.43;;;;;;;6.74;91.63;99919.19;714356;1177;115563;-75
2022/02/15 22:41:32;;;;;;;47.17;24.70;;;;;;;6.63;91.89;99910.42;714991;1174;114283;-74
2022/02/15 22:56:35;;;;;;;55.88;26.05;;;;;;;6.69;91.79;99895.25;726116;1174;114744;-74
2022/02/15 23:26:58;;;;;;;48.20;24.95;;;;;;;6.43;92.08;99857.24;715034;1174;114738;-74
2022/02/15 23:42:00;;;;;;;43.20;22.17;;;;;;;6.22;92.40;99856.30;714007;1174;114278;-77
2022/02/15 23:57:03;;;;;;;50.70;25.10;;;;;;;6.06;92.56;99848.80;714768;1174;115543;-77
